Portada
METAR-TAF:

METAR-TAF

Aeropuertos :

El Cairo, Egipto

Aeropuerto Internacional de El Cairo

latitud: 30-08N, longitud: 031-24E, altitud: 64 m

Observación

El informe se hizo hace 27 minutos, a las 20:00 UTC
Viento 7 kt del norte-noreste
Temperatura 23°C
Humedad 41%
Presión 1015 hPa
Visibilidad 10 km o más
sin nubes por debajo de 1500 m y sin presencia de cumulonimbus.

METAR: HECA 272000Z 03007KT CAVOK 23/09 Q1015 NOSIG

Hora: 22:27 (20:27 UTC)

Pronóstico

El informe se hizo hace 3 horas y 27 minutos, a las 17:00 UTC
Pronóstico válido del 27 a las 18 UTC al 28 a las 24 UTC
Viento 8 kt del norte
Visibilidad 10 km o más
sin nubes por debajo de 1500 m y sin presencia de cumulonimbus.
Temporalmente
del 28 a las 00 UTC al 28 a las 06 UTC
Visibilidad: 6000 m
Probabilidad 40% :
Temporalmente
del 28 a las 03 UTC al 28 a las 06 UTC
Visibilidad: 3000 m
neblina

TAF: HECA 271700Z 2718/2824 36008KT CAVOK TEMPO 2800/2806 6000 NSC PROB40 TEMPO 2803/2806 3000 BR NSC

Observaciones y pronósticos meteorológicos de más de 4000 aeropuertos (mensajes METAR y TAF).

Los puntos amarillos y rojos representan las estaciones disponibles.

Ponga el ratón en el punto deseado para ver el nombre de la estación.

Haga clic para ver las observaciones y los pronósticos meteorológicos.

Para cambiar el mapa : haga clic en los botones verdes con una cruz de color negro para hacer un zoom, en el botón verde con un guión para alejar o en las flechas verdes para mapas adyacentes.


METAR-TAF: